Time;durP1;ratioP1;P1;durP2;ratioP2;P2;SDS_P1;SDS_P2;PMS_P1;PMS_P2;Temp;Humidity;BMP_temperature;BMP_pressure;BME280_temperature;BME280_humidity;BME280_pressure;Samples;Min_cycle;Max_cycle;Signal;HPM_P1;HPM_P2
2022/12/01 00:01:13;;;;;;;9.88;6.03;;;22.40;99.90;;;;;;4976449;28;20047;-66
2022/12/01 00:03:39;;;;;;;10.30;6.18;;;22.30;99.90;;;;;;4976550;28;20038;-66
2022/12/01 00:06:17;;;;;;;9.60;6.22;;;22.40;99.90;;;;;;4976589;28;20034;-65
2022/12/01 00:10:24;;;;;;;9.27;6.45;;;22.30;99.90;;;;;;4976391;28;20026;-63
2022/12/01 00:11:33;;;;;;;9.30;6.03;;;22.30;99.90;;;;;;4976292;28;20034;-64
2022/12/01 00:13:58;;;;;;;8.88;6.22;;;22.30;99.90;;;;;;4976136;28;20053;-66
2022/12/01 00:16:24;;;;;;;10.25;6.78;;;22.30;99.90;;;;;;4976240;28;20034;-65
2022/12/01 00:18:51;;;;;;;9.40;5.88;;;22.30;99.90;;;;;;4976099;28;20023;-66
2022/12/01 00:21:19;;;;;;;10.05;5.93;;;22.30;99.90;;;;;;4976215;28;20050;-65
2022/12/01 00:23:47;;;;;;;10.70;6.25;;;22.30;99.90;;;;;;4976133;28;20038;-62
2022/12/01 00:26:13;;;;;;;9.10;5.88;;;22.30;99.90;;;;;;4976244;28;20026;-66
2022/12/01 00:28:39;;;;;;;12.50;6.65;;;22.30;99.90;;;;;;4975219;28;20027;-64
2022/12/01 00:31:09;;;;;;;8.35;5.90;;;22.30;99.90;;;;;;4976200;28;20030;-64
2022/12/01 00:33:35;;;;;;;11.25;6.72;;;22.20;99.90;;;;;;4976175;28;20031;-64
2022/12/01 00:36:02;;;;;;;12.00;6.45;;;22.30;99.90;;;;;;4976002;28;20475;-64
2022/12/01 00:38:29;;;;;;;9.50;6.05;;;22.20;99.90;;;;;;4974743;28;20118;-64
2022/12/01 00:40:54;;;;;;;9.15;5.53;;;22.20;99.90;;;;;;4975877;28;20026;-64
2022/12/01 00:43:20;;;;;;;8.35;5.03;;;22.20;99.90;;;;;;4974813;28;20022;-64
2022/12/01 00:45:46;;;;;;;8.35;5.88;;;22.20;99.90;;;;;;4974602;28;20390;-64
2022/12/01 00:48:12;;;;;;;7.40;5.25;;;22.20;99.90;;;;;;4975578;28;20530;-64
2022/12/01 00:50:37;;;;;;;9.70;6.40;;;22.20;99.90;;;;;;4975829;28;20034;-64
2022/12/01 00:53:03;;;;;;;11.93;5.28;;;22.20;99.90;;;;;;4975688;28;20042;-64
2022/12/01 00:55:29;;;;;;;8.52;6.53;;;22.20;99.90;;;;;;4975507;28;20023;-64
2022/12/01 00:57:55;;;;;;;9.40;5.18;;;22.20;99.90;;;;;;4975576;28;20027;-60
2022/12/01 01:00:20;;;;;;;13.68;5.20;;;22.20;99.90;;;;;;5008134;23;20054;-46
2022/12/01 01:02:46;;;;;;;7.72;5.05;;;22.20;99.90;;;;;;5013149;28;20026;-47
2022/12/01 01:05:12;;;;;;;8.60;4.82;;;22.20;99.90;;;;;;5014588;28;20437;-47
2022/12/01 01:07:37;;;;;;;9.02;5.65;;;22.20;99.90;;;;;;5014372;28;20390;-46
2022/12/01 01:10:04;;;;;;;8.13;5.20;;;22.20;99.90;;;;;;5012884;28;20470;-46
2022/12/01 01:12:30;;;;;;;9.02;5.57;;;22.20;99.90;;;;;;5013942;28;20466;-47
2022/12/01 01:14:55;;;;;;;6.88;4.82;;;22.20;99.90;;;;;;5014175;28;20026;-47
2022/12/01 01:17:21;;;;;;;8.20;5.15;;;22.20;99.90;;;;;;5014011;28;20390;-47
2022/12/01 01:19:47;;;;;;;6.47;4.68;;;22.20;99.90;;;;;;5014056;28;20084;-48
2022/12/01 01:22:12;;;;;;;7.70;5.00;;;22.20;99.90;;;;;;5014214;28;20077;-47
2022/12/01 01:24:38;;;;;;;7.90;5.00;;;22.20;99.90;;;;;;5013907;28;20021;-47
2022/12/01 01:27:07;;;;;;;6.78;5.18;;;22.20;99.90;;;;;;5013867;28;20033;-47
2022/12/01 01:29:32;;;;;;;7.72;5.20;;;22.20;99.90;;;;;;5013825;28;20036;-47
2022/12/01 01:31:58;;;;;;;7.97;5.05;;;22.10;99.90;;;;;;5012511;28;20025;-47
2022/12/01 01:34:24;;;;;;;6.20;5.00;;;22.10;99.90;;;;;;5013719;28;20470;-47
2022/12/01 01:36:50;;;;;;;7.72;4.80;;;22.10;99.90;;;;;;5013889;28;20029;-47
2022/12/01 01:39:15;;;;;;;7.30;4.75;;;22.10;99.90;;;;;;5013684;28;20033;-46
2022/12/01 01:41:41;;;;;;;6.82;4.55;;;22.10;99.90;;;;;;5013693;28;20017;-47
2022/12/01 01:44:49;;;;;;;8.00;4.70;;;22.10;99.90;;;;;;5013656;28;20108;-46
2022/12/01 01:47:36;;;;;;;9.35;4.82;;;22.10;99.90;;;;;;5000144;28;20046;-48
2022/12/01 01:50:08;;;;;;;7.27;4.57;;;22.10;99.90;;;;;;5013658;28;20485;-48
2022/12/01 01:53:02;;;;;;;6.78;3.72;;;22.10;99.90;;;;;;5013404;28;20026;-48
2022/12/01 01:55:30;;;;;;;7.88;4.35;;;22.10;99.90;;;;;;5011083;28;20034;-47
2022/12/01 01:57:56;;;;;;;7.45;4.78;;;22.10;99.90;;;;;;5013691;28;20064;-47
2022/12/01 02:00:22;;;;;;;6.90;4.82;;;22.10;99.90;;;;;;5013453;28;20081;-48
2022/12/01 02:02:49;;;;;;;5.97;4.40;;;22.10;99.90;;;;;;5013306;28;20049;-48
2022/12/01 02:05:28;;;;;;;8.20;4.85;;;22.10;99.90;;;;;;5011934;28;20031;-48
2022/12/01 02:07:56;;;;;;;7.20;4.97;;;22.00;99.90;;;;;;5013461;28;20494;-48
2022/12/01 02:10:26;;;;;;;;;;;22.00;99.90;;;;;;5013690;28;20550;-48
2022/12/01 02:13:10;;;;;;;7.68;4.93;;;22.10;99.90;;;;;;5012740;28;19914;-47
2022/12/01 02:16:09;;;;;;;7.40;4.45;;;22.10;99.90;;;;;;5012990;28;20026;-48
2022/12/01 02:19:32;;;;;;;7.13;4.43;;;22.00;99.90;;;;;;4992853;28;20038;-47
2022/12/01 02:22:42;;;;;;;7.45;4.45;;;22.00;99.90;;;;;;4972016;28;20483;-47
2022/12/01 02:25:26;;;;;;;7.68;4.50;;;22.00;99.90;;;;;;4957186;28;20425;-47
2022/12/01 02:27:57;;;;;;;6.45;4.55;;;22.00;99.90;;;;;;5008337;28;20038;-47
2022/12/01 02:30:52;;;;;;;6.50;3.95;;;22.00;99.90;;;;;;5012848;28;20026;-47
2022/12/01 02:33:36;;;;;;;6.68;4.50;;;22.00;99.90;;;;;;5012835;28;20084;-47
2022/12/01 02:36:14;;;;;;;5.90;4.15;;;22.00;99.90;;;;;;5012719;28;20025;-47
2022/12/01 02:39:01;;;;;;;6.60;4.65;;;21.90;99.90;;;;;;5012737;28;20018;-47
2022/12/01 02:41:35;;;;;;;5.50;3.75;;;21.90;99.90;;;;;;5012846;28;20075;-47
2022/12/01 02:44:15;;;;;;;7.28;4.50;;;21.90;99.90;;;;;;5012600;28;20030;-47
2022/12/01 02:46:57;;;;;;;8.63;4.32;;;21.90;99.90;;;;;;5012676;28;20026;-47
2022/12/01 02:49:28;;;;;;;7.20;4.60;;;21.90;99.90;;;;;;5011913;28;20021;-47
2022/12/01 02:51:56;;;;;;;11.63;4.10;;;21.90;99.90;;;;;;5012150;28;20482;-45
2022/12/01 02:54:22;;;;;;;7.57;4.30;;;21.90;99.90;;;;;;5007687;28;20045;-48
2022/12/01 02:56:51;;;;;;;10.00;4.50;;;21.90;99.90;;;;;;5009123;28;20010;-48
2022/12/01 02:59:17;;;;;;;6.35;4.43;;;21.90;99.90;;;;;;5004862;28;20030;-48
2022/12/01 03:01:52;;;;;;;5.82;4.22;;;21.90;99.90;;;;;;5011895;28;20032;-48
2022/12/01 03:04:39;;;;;;;5.75;4.22;;;21.90;99.90;;;;;;5012050;28;20524;-47
2022/12/01 03:07:32;;;;;;;6.28;4.00;;;21.90;99.90;;;;;;5001518;28;20030;-48
2022/12/01 03:10:41;;;;;;;8.00;4.18;;;21.90;99.90;;;;;;4996398;28;20125;-48
2022/12/01 03:13:39;;;;;;;8.85;4.80;;;21.90;99.90;;;;;;4970773;28;20113;-48
2022/12/01 03:16:19;;;;;;;;;;;21.90;99.90;;;;;;5003869;28;20042;-48
2022/12/01 03:18:53;;;;;;;10.13;4.68;;;21.90;99.90;;;;;;5021501;28;19996;-48
2022/12/01 03:21:43;;;;;;;8.98;4.80;;;21.90;99.90;;;;;;5015205;28;20025;-48
2022/12/01 03:24:13;;;;;;;6.88;4.43;;;21.90;99.90;;;;;;5011844;28;20486;-48
2022/12/01 03:26:41;;;;;;;8.68;4.85;;;21.90;99.90;;;;;;5015396;28;20053;-48
2022/12/01 03:29:20;;;;;;;7.65;4.45;;;21.90;99.90;;;;;;5016006;28;20088;-48
2022/12/01 03:31:53;;;;;;;7.25;4.43;;;21.80;99.90;;;;;;5014926;28;20072;-47
2022/12/01 03:34:28;;;;;;;7.45;4.75;;;21.90;99.90;;;;;;5015666;28;20121;-47
2022/12/01 03:37:03;;;;;;;7.43;4.88;;;21.80;99.90;;;;;;5015691;28;20073;-48
2022/12/01 03:39:32;;;;;;;8.45;4.80;;;21.90;99.90;;;;;;5015939;28;20024;-48
2022/12/01 03:42:13;;;;;;;6.93;4.70;;;21.90;99.90;;;;;;5000837;28;20025;-47
2022/12/01 03:44:48;;;;;;;8.27;5.45;;;21.90;99.90;;;;;;5015223;28;20517;-46
2022/12/01 03:47:21;;;;;;;11.43;4.90;;;21.90;99.90;;;;;;5012787;28;20018;-47
2022/12/01 03:49:50;;;;;;;8.13;5.40;;;21.80;99.90;;;;;;5013259;28;20072;-47
2022/12/01 03:52:35;;;;;;;8.90;4.70;;;21.80;99.90;;;;;;5014823;28;20018;-48
2022/12/01 03:55:29;;;;;;;8.82;5.57;;;21.80;99.90;;;;;;5011325;28;20038;-48
2022/12/01 03:58:06;;;;;;;9.98;4.97;;;21.80;99.90;;;;;;5011978;28;20398;-48
2022/12/01 04:00:32;;;;;;;8.57;5.63;;;21.80;99.90;;;;;;5013809;28;20038;-48
2022/12/01 04:03:03;;;;;;;9.20;5.00;;;21.80;99.90;;;;;;5011904;28;20038;-48
2022/12/01 04:05:30;;;;;;;8.43;5.63;;;21.80;99.90;;;;;;5013260;28;20018;-48
2022/12/01 04:07:55;;;;;;;11.90;5.60;;;21.80;99.90;;;;;;5005166;28;20121;-48
2022/12/01 04:10:21;;;;;;;11.13;5.82;;;21.80;99.90;;;;;;5005752;28;20371;-48
2022/12/01 04:12:47;;;;;;;11.75;5.82;;;21.80;99.90;;;;;;5012961;28;20097;-48
2022/12/01 04:15:14;;;;;;;10.05;5.47;;;21.80;99.90;;;;;;5013764;28;20025;-48
2022/12/01 04:17:44;;;;;;;9.57;5.80;;;21.80;99.90;;;;;;5014132;28;20101;-48
2022/12/01 04:20:13;;;;;;;7.95;5.10;;;21.80;99.90;;;;;;5014279;28;20034;-48
2022/12/01 04:22:39;;;;;;;11.70;5.85;;;21.80;99.90;;;;;;5014849;28;20121;-48
2022/12/01 04:25:06;;;;;;;9.13;6.13;;;21.80;99.90;;;;;;5015141;28;20101;-48
2022/12/01 04:27:32;;;;;;;8.70;5.03;;;21.80;99.90;;;;;;5015099;28;20014;-48
2022/12/01 04:29:58;;;;;;;10.50;5.75;;;21.80;99.90;;;;;;5014797;28;20390;-48
2022/12/01 04:32:24;;;;;;;9.48;5.65;;;21.80;99.90;;;;;;5014753;28;20026;-48
2022/12/01 04:34:50;;;;;;;11.38;6.60;;;21.80;99.90;;;;;;5013448;28;20034;-48
2022/12/01 04:37:16;;;;;;;10.38;5.80;;;21.80;99.90;;;;;;5014417;28;20046;-48
2022/12/01 04:39:43;;;;;;;14.68;6.20;;;21.80;99.90;;;;;;5014594;28;20084;-48
2022/12/01 04:42:09;;;;;;;11.35;6.55;;;21.80;99.90;;;;;;5011857;28;20018;-48
2022/12/01 04:44:35;;;;;;;10.07;6.43;;;21.80;99.90;;;;;;5014257;28;20021;-48
2022/12/01 04:47:03;;;;;;;11.32;6.40;;;21.80;99.90;;;;;;5014635;28;20030;-48
2022/12/01 04:49:28;;;;;;;12.27;6.18;;;21.80;99.90;;;;;;5014752;28;20450;-48
2022/12/01 04:51:54;;;;;;;11.90;6.68;;;21.70;99.90;;;;;;5014640;28;20037;-48
2022/12/01 04:54:21;;;;;;;13.57;6.68;;;21.70;99.90;;;;;;5014620;28;20045;-48
2022/12/01 04:56:46;;;;;;;8.38;5.45;;;21.70;99.90;;;;;;5014709;28;20022;-48
2022/12/01 04:59:12;;;;;;;12.82;6.38;;;21.70;99.90;;;;;;5014660;28;20036;-48
2022/12/01 05:01:38;;;;;;;9.93;6.38;;;21.70;99.90;;;;;;5014939;28;20565;-48
2022/12/01 05:04:04;;;;;;;10.00;6.22;;;21.70;99.90;;;;;;5014575;28;20064;-48
2022/12/01 05:06:30;;;;;;;11.05;6.38;;;21.70;99.90;;;;;;5014306;28;20096;-48
2022/12/01 05:08:58;;;;;;;10.13;6.25;;;21.70;99.90;;;;;;5014290;28;20044;-48
2022/12/01 05:11:25;;;;;;;12.82;6.63;;;21.70;99.90;;;;;;5014249;28;20100;-48
2022/12/01 05:13:51;;;;;;;9.77;5.90;;;21.70;99.90;;;;;;5014185;28;20180;-47
2022/12/01 05:16:26;;;;;;;10.40;6.20;;;21.70;99.90;;;;;;5014137;28;20525;-48
2022/12/01 05:21:40;;;;;;;10.23;5.95;;;21.70;99.90;;;;;;5014543;28;20489;-48
2022/12/01 05:24:07;;;;;;;11.05;7.13;;;21.70;99.90;;;;;;5014193;28;20037;-48
2022/12/01 05:26:33;;;;;;;9.35;6.05;;;21.70;99.90;;;;;;5013939;28;20044;-48
2022/12/01 05:28:59;;;;;;;12.23;6.72;;;21.70;99.90;;;;;;5012727;28;20478;-48
2022/12/01 05:31:25;;;;;;;11.35;6.28;;;21.70;99.90;;;;;;5012514;28;20496;-48
2022/12/01 05:33:50;;;;;;;10.80;6.40;;;21.60;99.90;;;;;;5012275;28;20034;-48
2022/12/01 05:36:16;;;;;;;10.38;7.00;;;21.60;99.90;;;;;;5013802;28;20022;-47
2022/12/01 05:38:42;;;;;;;9.38;6.03;;;21.60;99.90;;;;;;5013852;28;20026;-47
2022/12/01 05:41:08;;;;;;;9.93;5.45;;;21.60;99.90;;;;;;5013926;28;20033;-47
2022/12/01 05:43:33;;;;;;;8.15;5.55;;;21.60;99.90;;;;;;5013759;28;20030;-48
2022/12/01 05:45:59;;;;;;;11.52;6.43;;;21.60;99.90;;;;;;5013610;28;20026;-47
2022/12/01 05:48:25;;;;;;;11.10;6.03;;;21.60;99.90;;;;;;5012860;28;20029;-47
2022/12/01 05:50:51;;;;;;;10.90;5.95;;;21.60;99.90;;;;;;5013595;28;20021;-48
2022/12/01 05:53:17;;;;;;;8.90;5.93;;;21.60;99.90;;;;;;5013456;28;20554;-48
2022/12/01 05:55:43;;;;;;;8.93;5.95;;;21.60;99.90;;;;;;5013480;28;20028;-48
2022/12/01 05:58:09;;;;;;;9.43;5.72;;;21.60;99.90;;;;;;5013644;28;20022;-48
2022/12/01 06:00:35;;;;;;;9.00;5.72;;;21.60;99.90;;;;;;5013238;28;20521;-49
2022/12/01 06:03:02;;;;;;;7.93;5.57;;;21.60;99.90;;;;;;5013355;28;20026;-48
2022/12/01 06:05:28;;;;;;;9.45;6.30;;;21.60;99.90;;;;;;5012002;28;20078;-48
2022/12/01 06:07:54;;;;;;;12.65;5.72;;;21.60;99.90;;;;;;5013172;28;20026;-47
2022/12/01 06:10:20;;;;;;;8.50;5.40;;;21.60;99.90;;;;;;5013163;28;20064;-48
2022/12/01 06:12:45;;;;;;;8.68;5.80;;;21.50;99.90;;;;;;5013249;28;20025;-48
2022/12/01 06:15:12;;;;;;;8.63;5.63;;;21.60;99.90;;;;;;5013261;28;20172;-48
2022/12/01 06:17:39;;;;;;;10.18;5.70;;;21.50;99.90;;;;;;5013110;28;20084;-48
2022/12/01 06:20:05;;;;;;;8.50;5.68;;;21.50;99.90;;;;;;5013058;28;20470;-48
2022/12/01 06:22:31;;;;;;;10.48;6.93;;;21.50;99.90;;;;;;5013078;28;20438;-48
2022/12/01 06:24:57;;;;;;;8.90;5.13;;;21.50;99.90;;;;;;5012880;28;20034;-48
2022/12/01 06:27:23;;;;;;;10.13;6.18;;;21.50;99.90;;;;;;5012960;28;20112;-48
2022/12/01 06:29:48;;;;;;;7.95;5.88;;;21.50;99.90;;;;;;5011674;28;20423;-48
2022/12/01 06:32:15;;;;;;;10.00;5.47;;;21.50;99.90;;;;;;5013010;28;20080;-49
2022/12/01 06:34:42;;;;;;;8.43;5.32;;;21.50;99.90;;;;;;5012951;28;20394;-49
2022/12/01 06:37:08;;;;;;;9.80;5.95;;;21.50;99.90;;;;;;5012722;28;20017;-48
2022/12/01 06:39:34;;;;;;;8.18;5.35;;;21.50;99.90;;;;;;5012927;28;20379;-48
2022/12/01 06:42:00;;;;;;;8.95;6.22;;;21.50;99.90;;;;;;5012581;28;20076;-48
2022/12/01 06:44:26;;;;;;;9.27;5.28;;;21.50;99.90;;;;;;5012466;28;20049;-48
2022/12/01 06:46:52;;;;;;;9.88;5.32;;;21.50;99.90;;;;;;5011461;28;20061;-48
2022/12/01 06:49:18;;;;;;;8.75;6.00;;;21.50;99.90;;;;;;5012506;28;20061;-48
2022/12/01 06:51:45;;;;;;;8.13;5.43;;;21.50;99.90;;;;;;5012853;28;20029;-48
2022/12/01 06:54:11;;;;;;;9.88;5.57;;;21.40;99.90;;;;;;5012703;28;20037;-48
2022/12/01 06:56:37;;;;;;;9.52;5.80;;;21.40;99.90;;;;;;5012413;28;20062;-48
2022/12/01 06:59:03;;;;;;;7.50;5.25;;;21.50;99.90;;;;;;5012499;28;20053;-48
2022/12/01 07:01:29;;;;;;;11.77;6.18;;;21.40;99.90;;;;;;5012268;28;20038;-47
2022/12/01 07:03:55;;;;;;;9.65;5.53;;;21.40;99.90;;;;;;5012422;28;20394;-48
2022/12/01 07:06:21;;;;;;;10.35;5.82;;;21.40;99.90;;;;;;5012418;28;20068;-48
2022/12/01 07:08:46;;;;;;;10.60;5.72;;;21.40;99.90;;;;;;5012651;28;20032;-48
2022/12/01 07:11:14;;;;;;;7.18;5.28;;;21.40;99.90;;;;;;5012474;28;20083;-48
2022/12/01 07:13:44;;;;;;;9.32;5.57;;;21.40;99.90;;;;;;5012418;28;20371;-48
2022/12/01 07:16:09;;;;;;;9.57;5.88;;;21.40;99.90;;;;;;5012298;28;20072;-48
2022/12/01 07:18:37;;;;;;;7.63;5.40;;;21.40;99.90;;;;;;5011029;28;20435;-48
2022/12/01 07:21:06;;;;;;;7.38;4.93;;;21.40;99.90;;;;;;5012287;28;20390;-48
2022/12/01 07:23:32;;;;;;;9.05;6.10;;;21.40;99.90;;;;;;5012349;28;20390;-48
2022/12/01 07:26:06;;;;;;;9.57;5.40;;;21.40;99.90;;;;;;5012174;28;20486;-48
2022/12/01 07:28:32;;;;;;;9.32;5.53;;;21.40;99.90;;;;;;5012210;28;20032;-47
2022/12/01 07:31:03;;;;;;;9.02;5.30;;;21.40;99.90;;;;;;5012263;28;20044;-48
2022/12/01 07:33:30;;;;;;;7.20;4.95;;;21.40;99.90;;;;;;5012106;28;20034;-48
2022/12/01 07:35:55;;;;;;;9.15;5.93;;;21.30;99.90;;;;;;5011033;28;20037;-48
2022/12/01 07:38:21;;;;;;;7.75;5.43;;;21.30;99.90;;;;;;5012226;28;20368;-47
2022/12/01 07:40:47;;;;;;;9.00;5.30;;;21.30;99.90;;;;;;5012404;28;20356;-48
2022/12/01 07:43:13;;;;;;;7.03;5.25;;;21.30;99.90;;;;;;5012020;28;20021;-47
2022/12/01 07:45:39;;;;;;;9.50;5.30;;;21.30;99.90;;;;;;5012040;28;20084;-48
2022/12/01 07:48:05;;;;;;;7.95;5.40;;;21.30;99.90;;;;;;5012337;28;20033;-48
2022/12/01 07:50:30;;;;;;;9.68;5.43;;;21.30;99.90;;;;;;5011991;28;20572;-48
2022/12/01 07:52:56;;;;;;;8.73;5.30;;;21.30;99.90;;;;;;5011896;28;20117;-48
2022/12/01 07:55:22;;;;;;;6.68;5.07;;;21.30;99.90;;;;;;5011927;28;20080;-48
2022/12/01 07:57:47;;;;;;;8.65;4.40;;;21.30;99.90;;;;;;5011069;28;20092;-48
2022/12/01 08:00:14;;;;;;;8.30;4.95;;;21.30;99.90;;;;;;5010426;28;20391;-48
2022/12/01 08:02:39;;;;;;;8.70;5.18;;;21.20;99.90;;;;;;5011948;28;20083;-48
2022/12/01 08:05:05;;;;;;;8.90;4.78;;;21.30;99.90;;;;;;5011913;28;20030;-48
2022/12/01 08:07:31;;;;;;;7.97;5.55;;;21.30;99.90;;;;;;5011700;28;20028;-48
2022/12/01 08:09:57;;;;;;;7.65;4.97;;;21.30;99.90;;;;;;5011924;28;20034;-48
2022/12/01 08:12:23;;;;;;;8.23;5.32;;;21.30;99.90;;;;;;5014401;28;20098;-48
2022/12/01 08:14:48;;;;;;;7.65;5.00;;;21.30;99.90;;;;;;5015514;28;20038;-48
2022/12/01 08:17:14;;;;;;;7.05;4.60;;;21.30;99.90;;;;;;5015294;28;20022;-48
2022/12/01 08:19:40;;;;;;;10.23;5.82;;;21.30;99.90;;;;;;5015331;28;20029;-49
2022/12/01 08:22:05;;;;;;;6.72;4.45;;;21.20;99.90;;;;;;5015207;28;20322;-49
2022/12/01 08:24:31;;;;;;;6.82;4.57;;;21.20;99.90;;;;;;5015162;28;20037;-49
2022/12/01 08:26:57;;;;;;;8.48;5.43;;;21.20;99.90;;;;;;5014031;28;20022;-48
2022/12/01 08:29:23;;;;;;;7.55;4.80;;;21.20;99.90;;;;;;5013989;28;20029;-48
2022/12/01 08:31:48;;;;;;;6.65;4.60;;;21.20;99.90;;;;;;5015346;28;20028;-48
2022/12/01 08:34:14;;;;;;;9.77;4.75;;;21.20;99.90;;;;;;5014928;28;20482;-48
2022/12/01 08:36:40;;;;;;;8.30;4.80;;;21.20;99.90;;;;;;5015023;28;20036;-49
2022/12/01 08:39:07;;;;;;;8.35;4.90;;;21.20;99.90;;;;;;5014911;28;20387;-48
2022/12/01 08:41:33;;;;;;;8.05;4.65;;;21.20;99.90;;;;;;5014977;28;20029;-48
2022/12/01 08:43:59;;;;;;;6.47;4.53;;;21.20;99.90;;;;;;5014980;28;20025;-48
2022/12/01 08:46:26;;;;;;;7.80;4.63;;;21.20;99.90;;;;;;5014754;28;20374;-48
2022/12/01 08:48:56;;;;;;;7.78;4.65;;;21.20;99.90;;;;;;5014895;28;20542;-48
2022/12/01 08:51:21;;;;;;;7.35;5.20;;;21.20;99.90;;;;;;5013529;28;20030;-49
2022/12/01 08:53:48;;;;;;;6.43;4.32;;;21.20;99.90;;;;;;5014495;28;20053;-49
2022/12/01 08:56:21;;;;;;;6.95;4.20;;;21.20;99.90;;;;;;5014687;28;20030;-48
2022/12/01 08:58:47;;;;;;;8.52;4.88;;;21.20;99.90;;;;;;5014534;28;20097;-48
2022/12/01 09:01:15;;;;;;;6.47;4.60;;;21.20;99.90;;;;;;5014227;28;20057;-48
2022/12/01 09:03:42;;;;;;;6.57;4.15;;;21.20;99.90;;;;;;5014525;28;20581;-49
2022/12/01 09:06:09;;;;;;;9.43;5.80;;;21.20;99.90;;;;;;5014243;28;20030;-48
2022/12/01 09:08:35;;;;;;;6.65;4.43;;;21.20;99.90;;;;;;5013042;28;20030;-48
2022/12/01 09:11:07;;;;;;;8.73;4.53;;;21.20;99.90;;;;;;5014291;28;20430;-48
2022/12/01 09:13:35;;;;;;;7.93;4.50;;;21.20;99.90;;;;;;5014101;28;20096;-49
2022/12/01 09:16:04;;;;;;;;;;;21.20;99.90;;;;;;5014436;28;20022;-48
2022/12/01 09:18:30;;;;;;;6.47;4.63;;;21.20;99.90;;;;;;5014137;28;20000;-48
2022/12/01 09:20:57;;;;;;;8.55;4.80;;;21.20;99.90;;;;;;5014158;28;20121;-48
2022/12/01 09:23:23;;;;;;;7.90;5.30;;;21.20;99.90;;;;;;5011837;28;20022;-47
2022/12/01 09:25:50;;;;;;;8.10;5.30;;;21.20;99.90;;;;;;5014102;28;20104;-48
2022/12/01 09:28:17;;;;;;;7.80;5.15;;;21.20;99.90;;;;;;5012682;28;20524;-49
2022/12/01 09:30:44;;;;;;;7.20;4.68;;;21.20;99.90;;;;;;5013830;28;20056;-48
2022/12/01 09:33:11;;;;;;;7.43;4.78;;;21.20;99.90;;;;;;5012569;28;20486;-48
2022/12/01 09:35:37;;;;;;;7.50;5.35;;;21.20;99.90;;;;;;5013878;28;20474;-49
2022/12/01 09:38:03;;;;;;;9.02;5.05;;;21.20;99.90;;;;;;5013880;28;20026;-56
2022/12/01 09:40:39;;;;;;;8.82;5.22;;;21.20;99.90;;;;;;5012361;28;20487;-49
2022/12/01 09:43:21;;;;;;;7.13;4.90;;;21.20;99.90;;;;;;5013685;28;20022;-49
2022/12/01 09:46:06;;;;;;;7.50;5.28;;;21.20;99.90;;;;;;5013632;28;20887;-49
2022/12/01 09:48:42;;;;;;;7.88;5.35;;;21.20;99.90;;;;;;5013774;28;20029;-49
2022/12/01 09:51:16;;;;;;;7.78;5.55;;;21.20;99.90;;;;;;5013606;28;20030;-49
2022/12/01 09:53:43;;;;;;;8.30;5.20;;;21.20;99.90;;;;;;5013303;28;20070;-49
2022/12/01 09:56:41;;;;;;;7.82;5.20;;;21.20;99.90;;;;;;5013189;28;20030;-48
2022/12/01 09:59:16;;;;;;;8.50;5.07;;;21.20;99.90;;;;;;5005414;28;20042;-48
2022/12/01 10:01:45;;;;;;;8.07;5.97;;;21.20;99.90;;;;;;5013243;28;20042;-49
2022/12/01 10:04:14;;;;;;;7.68;5.43;;;21.20;99.90;;;;;;5013405;28;20529;-48
2022/12/01 10:06:46;;;;;;;7.85;5.38;;;21.20;99.90;;;;;;5013282;28;20128;-49
2022/12/01 10:09:27;;;;;;;10.32;5.57;;;21.20;99.90;;;;;;5013329;28;20025;-49
2022/12/01 10:12:12;;;;;;;6.70;4.82;;;21.20;99.90;;;;;;5013231;28;20030;-49
2022/12/01 10:14:38;;;;;;;7.90;5.55;;;21.20;99.90;;;;;;5012955;28;20539;-48
2022/12/01 10:17:20;;;;;;;8.35;5.50;;;21.20;99.90;;;;;;5013105;28;20104;-48
2022/12/01 10:20:27;;;;;;;7.53;5.32;;;21.20;99.90;;;;;;5013016;28;20462;-48
2022/12/01 10:23:22;;;;;;;9.93;6.22;;;21.20;99.90;;;;;;5007396;28;20537;-49
2022/12/01 10:25:54;;;;;;;10.68;5.50;;;21.10;99.90;;;;;;5012948;28;20040;-48
2022/12/01 10:28:41;;;;;;;7.85;5.20;;;21.20;99.90;;;;;;5012950;28;20054;-48
2022/12/01 10:31:21;;;;;;;6.78;5.43;;;21.20;99.90;;;;;;5012858;28;20041;-48
2022/12/01 10:33:55;;;;;;;9.40;5.10;;;21.20;99.90;;;;;;5012248;28;20038;-48
2022/12/01 10:36:22;;;;;;;7.22;4.93;;;21.20;99.90;;;;;;5012576;28;20034;-49
2022/12/01 10:38:48;;;;;;;8.35;5.43;;;21.20;99.90;;;;;;5012803;28;20025;-49
2022/12/01 10:41:16;;;;;;;11.95;5.80;;;21.20;99.90;;;;;;5012605;28;20104;-50
2022/12/01 10:43:50;;;;;;;10.38;5.93;;;21.10;99.90;;;;;;5012567;28;20022;-49
2022/12/01 10:46:37;;;;;;;12.07;6.65;;;21.10;99.90;;;;;;5012641;28;20108;-49
2022/12/01 10:49:09;;;;;;;8.88;5.97;;;21.10;99.90;;;;;;5012652;28;20029;-49
2022/12/01 10:51:55;;;;;;;7.43;5.15;;;21.20;99.90;;;;;;5012594;28;20105;-48
2022/12/01 10:54:30;;;;;;;7.95;5.68;;;21.20;99.90;;;;;;5012883;28;20026;-47
2022/12/01 10:56:57;;;;;;;7.90;5.43;;;21.20;99.90;;;;;;5012314;28;20085;-48
2022/12/01 10:59:45;;;;;;;8.73;5.35;;;21.20;99.90;;;;;;5012360;28;20029;-46
2022/12/01 11:02:18;;;;;;;8.65;5.60;;;21.20;99.90;;;;;;4991819;28;20034;-48
2022/12/01 11:04:52;;;;;;;7.25;5.38;;;21.20;99.90;;;;;;4992677;28;20054;-46
2022/12/01 11:07:28;;;;;;;10.50;5.50;;;21.20;99.90;;;;;;4993045;28;20076;-47
2022/12/01 11:10:17;;;;;;;7.35;5.47;;;21.20;99.90;;;;;;4992643;28;20022;-46
2022/12/01 11:12:51;;;;;;;7.20;5.25;;;21.20;99.90;;;;;;4992625;28;20490;-49
2022/12/01 11:15:29;;;;;;;10.85;6.63;;;21.20;99.90;;;;;;4992612;28;20124;-49
2022/12/01 11:18:04;;;;;;;7.90;5.57;;;21.20;99.90;;;;;;4976827;28;20023;-48
2022/12/01 11:20:34;;;;;;;8.05;5.00;;;21.20;99.90;;;;;;4992784;28;20026;-49
2022/12/01 11:23:20;;;;;;;8.15;5.28;;;21.20;99.90;;;;;;4992700;28;20507;-49
2022/12/01 11:26:04;;;;;;;10.40;6.22;;;21.20;99.90;;;;;;4992477;28;20475;-46
2022/12/01 11:28:32;;;;;;;8.63;5.40;;;21.30;99.90;;;;;;4991307;28;20026;-47
2022/12/01 11:31:01;;;;;;;8.07;5.47;;;21.20;99.90;;;;;;4992427;28;20076;-47
2022/12/01 11:33:28;;;;;;;8.15;5.97;;;21.20;99.90;;;;;;4992394;28;20049;-47
2022/12/01 11:35:54;;;;;;;7.28;5.20;;;21.30;99.90;;;;;;4992463;28;20023;-48
2022/12/01 11:38:22;;;;;;;7.57;5.40;;;21.30;99.90;;;;;;4992502;28;20030;-47
2022/12/01 11:40:56;;;;;;;10.75;5.57;;;21.30;99.90;;;;;;4992374;28;20101;-49
2022/12/01 11:43:33;;;;;;;9.20;5.95;;;21.30;99.90;;;;;;4992376;28;20022;-49
2022/12/01 11:46:04;;;;;;;7.20;5.50;;;21.30;99.90;;;;;;4992881;28;20033;-49
2022/12/01 11:48:35;;;;;;;9.90;6.03;;;21.30;99.90;;;;;;4996266;28;20029;-47
2022/12/01 11:51:37;;;;;;;7.68;5.30;;;21.30;99.90;;;;;;4996293;28;20022;-47
2022/12/01 11:54:11;;;;;;;7.63;5.25;;;21.40;99.90;;;;;;4984597;28;20054;-47
2022/12/01 11:56:37;;;;;;;9.65;6.00;;;21.30;99.90;;;;;;4995869;28;20030;-47
2022/12/01 11:59:09;;;;;;;8.85;5.78;;;21.40;99.90;;;;;;4995853;28;20033;-47
2022/12/01 12:01:49;;;;;;;8.50;5.13;;;21.40;99.90;;;;;;5012867;28;20524;-49
2022/12/01 12:04:37;;;;;;;8.60;5.50;;;21.40;99.90;;;;;;5015315;28;20080;-50
2022/12/01 12:07:48;;;;;;;10.43;5.25;;;21.40;99.90;;;;;;5015570;28;20026;-48
2022/12/01 12:10:22;;;;;;;8.80;6.25;;;21.40;99.90;;;;;;5015323;28;20018;-47
2022/12/01 12:13:08;;;;;;;9.02;5.43;;;21.40;99.90;;;;;;5014165;28;20030;-47
2022/12/01 12:15:42;;;;;;;10.90;5.38;;;21.40;99.90;;;;;;5012619;28;20022;-47
2022/12/01 12:18:25;;;;;;;9.82;5.93;;;21.40;99.90;;;;;;5014230;28;20022;-47
2022/12/01 12:21:23;;;;;;;6.85;5.32;;;21.50;99.90;;;;;;5013051;28;20022;-47
2022/12/01 12:23:58;;;;;;;7.72;5.57;;;21.50;99.90;;;;;;4992743;28;20444;-48
2022/12/01 12:26:25;;;;;;;8.70;5.75;;;21.50;99.90;;;;;;4995225;28;20026;-47
2022/12/01 12:29:26;;;;;;;9.55;5.63;;;21.50;99.90;;;;;;4995457;28;20395;-47
2022/12/01 12:32:11;;;;;;;8.48;5.57;;;21.50;99.90;;;;;;4986484;28;20113;-48
2022/12/01 12:35:12;;;;;;;8.25;5.50;;;21.50;99.90;;;;;;4995420;28;20092;-47
2022/12/01 12:37:37;;;;;;;8.40;5.88;;;21.50;99.90;;;;;;4994995;28;20446;-48
2022/12/01 12:40:15;;;;;;;11.77;5.80;;;21.50;99.90;;;;;;4995373;28;20027;-47
2022/12/01 12:43:02;;;;;;;;;;;21.50;99.90;;;;;;4995466;28;20034;-48
2022/12/01 12:45:53;;;;;;;;;;;21.50;99.90;;;;;;4991607;28;20330;-47
2022/12/01 12:48:34;;;;;;;13.15;5.32;;;21.50;99.90;;;;;;4994997;28;19929;-47
2022/12/01 12:51:11;;;;;;;9.05;5.20;;;21.60;99.90;;;;;;4994985;28;20027;-47
2022/12/01 12:53:46;;;;;;;8.25;5.25;;;21.60;99.90;;;;;;5011848;28;20553;-48
2022/12/01 12:56:16;;;;;;;7.25;4.85;;;21.50;99.90;;;;;;5011714;28;20491;-47
2022/12/01 12:59:01;;;;;;;7.25;4.38;;;21.60;99.90;;;;;;5011455;28;20030;-48
2022/12/01 13:01:46;;;;;;;6.47;4.40;;;21.70;99.90;;;;;;5010228;28;20061;-48
2022/12/01 13:04:31;;;;;;;6.15;3.90;;;21.70;99.90;;;;;;5014167;28;20037;-47
2022/12/01 13:07:04;;;;;;;5.53;3.10;;;21.70;99.90;;;;;;5014290;28;20359;-47
2022/12/01 13:09:51;;;;;;;5.22;3.53;;;21.80;99.90;;;;;;5014200;28;20026;-47
2022/12/01 13:12:39;;;;;;;43.08;28.85;;;21.80;99.90;;;;;;5014374;28;20097;-47